Time;durP1;ratioP1;P1;durP2;ratioP2;P2;SDS_P1;SDS_P2;PMS_P1;PMS_P2;Temp;Humidity;BMP_temperature;BMP_pressure;BME280_temperature;BME280_humidity;BME280_pressure;Samples;Min_cycle;Max_cycle;Signal;HPM_P1;HPM_P2
2023/03/03 00:01:26;;;;;;;50.15;21.17;;;2.40;99.90;;;;;;5010388;28;20041;-72
2023/03/03 00:03:53;;;;;;;54.58;21.42;;;2.50;99.90;;;;;;5014936;28;20112;-72
2023/03/03 00:06:19;;;;;;;56.97;25.42;;;2.50;99.90;;;;;;5014929;28;20025;-71
2023/03/03 00:08:45;;;;;;;48.25;20.70;;;2.50;99.90;;;;;;5018202;28;20019;-73
2023/03/03 00:11:11;;;;;;;48.25;19.90;;;2.50;99.90;;;;;;5012295;28;20017;-74
2023/03/03 00:13:47;;;;;;;51.70;22.23;;;2.60;99.90;;;;;;5014953;28;20429;-72
2023/03/03 00:16:24;;;;;;;50.22;21.50;;;2.60;99.90;;;;;;5013159;28;20127;-73
2023/03/03 00:18:51;;;;;;;51.58;22.08;;;2.60;99.90;;;;;;5016376;28;20025;-73
2023/03/03 00:21:28;;;;;;;57.65;23.23;;;2.50;99.90;;;;;;4997339;28;20462;-71
2023/03/03 00:24:02;;;;;;;53.20;21.13;;;2.50;99.90;;;;;;5013762;28;20043;-71
2023/03/03 00:26:35;;;;;;;49.65;21.58;;;2.50;99.90;;;;;;5009621;28;20095;-71
2023/03/03 00:29:01;;;;;;;59.05;22.30;;;2.40;99.90;;;;;;5014596;28;20454;-73
2023/03/03 00:31:35;;;;;;;46.45;20.67;;;2.50;99.90;;;;;;5012932;28;20029;-71
2023/03/03 00:34:19;;;;;;;47.72;20.40;;;2.40;99.90;;;;;;5016709;28;20029;-71
2023/03/03 00:36:45;;;;;;;55.58;19.00;;;2.40;99.90;;;;;;5008989;28;20026;-73
2023/03/03 00:39:21;;;;;;;44.78;21.25;;;2.30;99.90;;;;;;5014338;28;20026;-74
2023/03/03 00:41:47;;;;;;;57.30;20.90;;;2.30;99.90;;;;;;5008139;28;20034;-74
2023/03/03 00:44:32;;;;;;;58.92;19.63;;;2.30;99.90;;;;;;5014554;28;20504;-73
2023/03/03 00:47:12;;;;;;;54.47;21.48;;;2.20;99.90;;;;;;5015584;28;20076;-71
2023/03/03 00:49:38;;;;;;;40.45;18.73;;;2.20;99.90;;;;;;5016446;28;20087;-71
2023/03/03 00:52:15;;;;;;;49.55;20.90;;;2.20;99.90;;;;;;5014800;28;20469;-71
2023/03/03 00:54:41;;;;;;;48.90;21.02;;;2.20;99.90;;;;;;5012911;28;20034;-73
2023/03/03 00:57:07;;;;;;;54.38;21.15;;;2.20;99.90;;;;;;5010908;28;20033;-73
2023/03/03 00:59:33;;;;;;;47.05;21.85;;;2.20;99.90;;;;;;5016441;28;20033;-71
2023/03/03 01:01:59;;;;;;;59.72;20.98;;;2.20;99.90;;;;;;5016212;28;20535;-71
2023/03/03 01:04:25;;;;;;;51.90;21.05;;;2.20;99.90;;;;;;5012070;28;20036;-71
2023/03/03 01:06:51;;;;;;;75.00;21.15;;;2.20;99.90;;;;;;5011503;28;20116;-71
2023/03/03 01:09:16;;;;;;;48.03;20.42;;;2.10;99.90;;;;;;5012735;28;20036;-70
2023/03/03 01:11:42;;;;;;;48.33;22.13;;;2.10;99.90;;;;;;5011102;28;20391;-72
2023/03/03 01:14:08;;;;;;;45.78;21.40;;;2.20;99.90;;;;;;5010257;28;20033;-70
2023/03/03 01:16:34;;;;;;;43.00;19.40;;;2.20;99.90;;;;;;5013132;28;20029;-71
2023/03/03 01:18:59;;;;;;;74.18;20.73;;;2.10;99.90;;;;;;5012877;28;20573;-70
2023/03/03 01:21:25;;;;;;;55.97;21.38;;;2.00;99.90;;;;;;5009763;28;20030;-70
2023/03/03 01:23:51;;;;;;;53.03;21.98;;;2.00;99.90;;;;;;5016170;28;20808;-70
2023/03/03 01:26:17;;;;;;;63.15;20.92;;;2.00;99.90;;;;;;5013807;28;20494;-72
2023/03/03 01:28:43;;;;;;;51.55;18.88;;;1.90;99.90;;;;;;5011825;28;20037;-72
2023/03/03 01:31:08;;;;;;;43.58;19.92;;;1.90;99.90;;;;;;5013123;28;20026;-70
2023/03/03 01:33:35;;;;;;;43.03;19.83;;;1.90;99.90;;;;;;5012835;28;20029;-73
2023/03/03 01:36:01;;;;;;;47.40;21.67;;;1.90;99.90;;;;;;5015036;28;20115;-73
2023/03/03 01:38:27;;;;;;;45.90;19.38;;;1.90;99.90;;;;;;5013424;28;20143;-71
2023/03/03 01:40:55;;;;;;;43.22;20.00;;;2.00;99.90;;;;;;5015332;28;20033;-72
2023/03/03 01:43:21;;;;;;;56.22;20.35;;;2.00;99.90;;;;;;5011701;28;20033;-72
2023/03/03 01:45:47;;;;;;;37.88;17.90;;;1.90;99.90;;;;;;5012349;28;20049;-73
2023/03/03 01:48:39;;;;;;;59.13;20.58;;;1.90;99.90;;;;;;5010708;28;20117;-71
2023/03/03 01:51:18;;;;;;;45.85;19.67;;;1.80;99.90;;;;;;4999693;28;20482;-72
2023/03/03 01:53:51;;;;;;;39.95;19.02;;;1.80;99.90;;;;;;5011393;28;20429;-72
2023/03/03 01:56:17;;;;;;;82.38;21.58;;;1.80;99.90;;;;;;5014609;28;20058;-73
2023/03/03 01:58:52;;;;;;;44.53;21.02;;;1.80;99.90;;;;;;5012047;28;20076;-71
2023/03/03 02:01:23;;;;;;;39.85;19.45;;;1.80;99.90;;;;;;5016135;28;20026;-71
2023/03/03 02:03:50;;;;;;;42.10;20.27;;;1.80;99.90;;;;;;5004845;28;20121;-72
2023/03/03 02:06:18;;;;;;;52.97;20.30;;;1.80;99.90;;;;;;5017952;28;20026;-74
2023/03/03 02:09:02;;;;;;;42.00;19.25;;;1.90;99.90;;;;;;5016870;28;20490;-73
2023/03/03 02:11:31;;;;;;;42.78;19.70;;;1.90;99.90;;;;;;5015552;28;20022;-73
2023/03/03 02:13:57;;;;;;;41.33;19.58;;;1.90;99.90;;;;;;5018458;28;20034;-71
2023/03/03 02:16:22;;;;;;;36.72;18.73;;;1.80;99.90;;;;;;5019574;28;20036;-71
2023/03/03 02:18:48;;;;;;;35.58;17.67;;;1.90;99.90;;;;;;5000785;28;20034;-71
2023/03/03 02:21:20;;;;;;;39.22;20.17;;;1.90;99.90;;;;;;5019470;28;20497;-74
2023/03/03 02:23:49;;;;;;;86.47;19.42;;;1.90;99.90;;;;;;5019128;28;20112;-71
2023/03/03 02:26:17;;;;;;;53.15;19.08;;;1.80;99.90;;;;;;5016810;28;20021;-73
2023/03/03 02:28:43;;;;;;;40.63;19.27;;;1.70;99.90;;;;;;4999845;28;20021;-73
2023/03/03 02:31:13;;;;;;;47.20;19.63;;;1.80;99.90;;;;;;5018460;28;20180;-73
2023/03/03 02:33:44;;;;;;;44.65;20.13;;;1.80;99.90;;;;;;5016092;28;20049;-74
2023/03/03 02:36:28;;;;;;;39.65;20.98;;;1.90;99.90;;;;;;5019291;28;20500;-73
2023/03/03 02:39:20;;;;;;;37.45;17.63;;;1.80;99.90;;;;;;5018001;28;20033;-73
2023/03/03 02:41:57;;;;;;;36.10;17.25;;;1.80;99.90;;;;;;5019567;28;20017;-73
2023/03/03 02:44:26;;;;;;;50.88;18.50;;;1.80;99.90;;;;;;5016415;28;20064;-72
2023/03/03 02:46:54;;;;;;;37.70;17.45;;;1.70;99.90;;;;;;5021514;28;20025;-71
2023/03/03 02:49:25;;;;;;;35.45;18.27;;;1.70;99.90;;;;;;5014522;28;20365;-73
2023/03/03 02:51:52;;;;;;;33.10;17.45;;;1.60;99.90;;;;;;5000718;28;20034;-72
2023/03/03 02:54:20;;;;;;;42.30;19.20;;;1.70;99.90;;;;;;5015741;28;20035;-73
2023/03/03 02:56:46;;;;;;;34.72;17.58;;;1.60;99.90;;;;;;5010780;28;20143;-71
2023/03/03 02:59:12;;;;;;;36.90;17.15;;;1.60;99.90;;;;;;5014452;28;20033;-70
2023/03/03 03:01:38;;;;;;;37.53;16.67;;;1.60;99.90;;;;;;5010048;28;20029;-70
2023/03/03 03:04:13;;;;;;;50.70;17.63;;;1.50;99.90;;;;;;4999006;28;20036;-70
2023/03/03 03:06:39;;;;;;;32.90;17.33;;;1.50;99.90;;;;;;5014262;28;20037;-70
2023/03/03 03:09:06;;;;;;;28.00;16.15;;;1.50;99.90;;;;;;5015538;28;20030;-71
2023/03/03 03:11:31;;;;;;;33.10;16.73;;;1.50;99.90;;;;;;5013906;28;20026;-72
2023/03/03 03:13:57;;;;;;;30.13;16.08;;;1.40;99.90;;;;;;5011200;28;20033;-70
2023/03/03 03:16:23;;;;;;;38.00;16.67;;;1.40;99.90;;;;;;5016321;28;20034;-73
2023/03/03 03:18:51;;;;;;;36.70;16.05;;;1.40;99.90;;;;;;4994824;28;20191;-70
2023/03/03 03:21:17;;;;;;;32.17;16.92;;;1.40;99.90;;;;;;5015324;28;20041;-73
2023/03/03 03:23:43;;;;;;;47.55;19.73;;;1.40;99.90;;;;;;5012760;28;20034;-73
2023/03/03 03:26:09;;;;;;;53.40;19.05;;;1.40;99.90;;;;;;5015813;28;20083;-71
2023/03/03 03:28:35;;;;;;;51.47;19.80;;;1.40;99.90;;;;;;5017300;28;20025;-70
2023/03/03 03:31:01;;;;;;;41.78;19.92;;;1.30;99.90;;;;;;5011345;28;20117;-72
2023/03/03 03:33:27;;;;;;;75.93;19.55;;;1.30;99.90;;;;;;5019982;28;20022;-74
2023/03/03 03:35:54;;;;;;;38.17;18.08;;;1.20;99.90;;;;;;5012264;28;20044;-70
2023/03/03 03:38:21;;;;;;;55.75;18.33;;;1.20;99.90;;;;;;5012785;28;20025;-69
2023/03/03 03:40:47;;;;;;;39.90;16.98;;;1.20;99.90;;;;;;5014473;28;20501;-72
2023/03/03 03:43:13;;;;;;;36.92;17.35;;;1.20;99.90;;;;;;5016227;28;20045;-72
2023/03/03 03:45:41;;;;;;;43.40;17.95;;;1.20;99.90;;;;;;4995504;28;20025;-72
2023/03/03 03:48:07;;;;;;;42.38;17.48;;;1.20;99.90;;;;;;5009632;28;20029;-72
2023/03/03 03:50:33;;;;;;;44.45;19.92;;;1.10;99.90;;;;;;5018817;28;20049;-71
2023/03/03 03:52:59;;;;;;;38.95;18.45;;;1.20;99.90;;;;;;5015263;28;20497;-70
2023/03/03 03:55:24;;;;;;;42.55;18.27;;;1.20;99.90;;;;;;5015778;28;20033;-70
2023/03/03 03:57:50;;;;;;;46.47;19.35;;;1.20;99.90;;;;;;5016055;28;20132;-72
2023/03/03 04:00:19;;;;;;;46.35;17.90;;;1.20;99.90;;;;;;5014694;28;20030;-70
2023/03/03 04:02:45;;;;;;;37.97;17.23;;;1.20;99.90;;;;;;5015680;28;20367;-71
2023/03/03 04:05:10;;;;;;;31.23;16.05;;;1.20;99.90;;;;;;5013593;28;20488;-70
2023/03/03 04:07:36;;;;;;;33.25;18.60;;;1.20;99.90;;;;;;5019381;28;20030;-72
2023/03/03 04:10:02;;;;;;;29.75;14.68;;;1.30;99.90;;;;;;5016684;28;20036;-70
2023/03/03 04:12:28;;;;;;;29.33;15.35;;;1.30;99.90;;;;;;5018140;28;20453;-69
2023/03/03 04:14:54;;;;;;;30.13;15.93;;;1.30;99.90;;;;;;5015502;28;20110;-72
2023/03/03 04:17:23;;;;;;;30.33;15.48;;;1.30;99.90;;;;;;5017530;28;20032;-71
2023/03/03 04:19:51;;;;;;;34.30;16.02;;;1.30;99.90;;;;;;5014392;28;20037;-69
2023/03/03 04:22:17;;;;;;;32.03;15.02;;;1.30;99.90;;;;;;5017742;28;20433;-71
2023/03/03 04:24:43;;;;;;;35.20;14.05;;;1.20;99.90;;;;;;5018358;28;20038;-70
2023/03/03 04:27:10;;;;;;;31.42;15.63;;;1.10;99.90;;;;;;5017492;28;20021;-72
2023/03/03 04:29:35;;;;;;;31.83;14.95;;;1.00;99.90;;;;;;5015073;28;20094;-70
2023/03/03 04:32:02;;;;;;;31.73;15.65;;;1.10;99.90;;;;;;5012389;28;20527;-71
2023/03/03 04:34:28;;;;;;;28.95;14.65;;;1.10;99.90;;;;;;5011150;28;20554;-70
2023/03/03 04:36:54;;;;;;;32.55;16.27;;;1.20;99.90;;;;;;5014231;28;20033;-70
2023/03/03 04:39:20;;;;;;;26.45;15.07;;;1.10;99.90;;;;;;5016348;28;20033;-73
2023/03/03 04:41:45;;;;;;;34.85;15.10;;;1.10;99.90;;;;;;5014322;28;20033;-71
2023/03/03 04:44:11;;;;;;;27.88;14.88;;;1.20;99.90;;;;;;5015288;28;20444;-72
2023/03/03 04:46:37;;;;;;;35.72;16.23;;;1.20;99.90;;;;;;5013273;28;20013;-73
2023/03/03 04:49:03;;;;;;;30.48;15.45;;;1.20;99.90;;;;;;5014131;28;20026;-70
2023/03/03 04:51:29;;;;;;;31.90;16.00;;;1.30;99.90;;;;;;5009863;28;20087;-70
2023/03/03 04:53:54;;;;;;;29.50;15.75;;;1.30;99.90;;;;;;5015833;28;20030;-70
2023/03/03 04:56:20;;;;;;;33.55;16.65;;;1.30;99.90;;;;;;5009756;28;20610;-72
2023/03/03 04:58:45;;;;;;;32.03;15.68;;;1.30;99.90;;;;;;5016902;28;20422;-73
2023/03/03 05:01:14;;;;;;;33.20;15.63;;;1.30;99.90;;;;;;5020673;28;20156;-73
2023/03/03 05:03:40;;;;;;;42.40;17.92;;;1.30;99.90;;;;;;5017702;28;20539;-71
2023/03/03 05:06:07;;;;;;;34.40;16.75;;;1.30;99.90;;;;;;5019085;28;20037;-74
2023/03/03 05:08:32;;;;;;;45.05;18.58;;;1.20;99.90;;;;;;5011840;28;20041;-71
2023/03/03 05:11:01;;;;;;;38.80;17.67;;;1.20;99.90;;;;;;5014387;28;20581;-75
2023/03/03 05:13:27;;;;;;;37.10;18.95;;;1.10;99.90;;;;;;5015860;28;20041;-71
2023/03/03 05:15:55;;;;;;;38.03;18.23;;;1.10;99.90;;;;;;5013518;28;20502;-73
2023/03/03 05:18:25;;;;;;;38.10;17.52;;;1.10;99.90;;;;;;5015407;28;20404;-72
2023/03/03 05:20:51;;;;;;;33.45;16.88;;;1.10;99.90;;;;;;5009160;28;20090;-73
2023/03/03 05:23:18;;;;;;;45.58;18.73;;;1.10;99.90;;;;;;5011348;28;20033;-74
2023/03/03 05:25:44;;;;;;;38.80;18.30;;;1.20;99.90;;;;;;5017164;28;20037;-75
2023/03/03 05:28:10;;;;;;;48.90;20.65;;;1.20;99.90;;;;;;4999070;28;20022;-72
2023/03/03 05:30:36;;;;;;;53.55;20.63;;;1.20;99.90;;;;;;5011741;28;20155;-73
2023/03/03 05:33:03;;;;;;;48.92;21.30;;;1.20;99.90;;;;;;5013711;28;20033;-71
2023/03/03 05:35:28;;;;;;;49.13;19.75;;;1.20;99.90;;;;;;5016069;28;20083;-76
2023/03/03 05:37:54;;;;;;;40.10;18.85;;;1.30;99.90;;;;;;5018576;28;20030;-73
2023/03/03 05:40:20;;;;;;;41.50;16.83;;;1.30;99.90;;;;;;5019598;28;20042;-72
2023/03/03 05:42:46;;;;;;;42.78;18.45;;;1.30;99.90;;;;;;5023339;28;20120;-72
2023/03/03 05:45:12;;;;;;;37.58;17.13;;;1.20;99.90;;;;;;5017390;28;20120;-72
2023/03/03 05:47:38;;;;;;;39.13;16.77;;;1.20;99.90;;;;;;5023760;28;20033;-73
2023/03/03 05:50:04;;;;;;;40.88;18.00;;;1.20;99.90;;;;;;5024093;28;20470;-73
2023/03/03 05:52:30;;;;;;;39.92;17.65;;;1.20;99.90;;;;;;5001665;28;20026;-70
2023/03/03 05:54:56;;;;;;;39.08;18.65;;;1.20;99.90;;;;;;5021714;28;20558;-70
2023/03/03 05:57:22;;;;;;;40.35;18.02;;;1.20;99.90;;;;;;5013764;28;20037;-72
2023/03/03 05:59:47;;;;;;;40.13;17.48;;;1.30;99.90;;;;;;5017778;28;20073;-71
2023/03/03 06:02:13;;;;;;;43.50;19.15;;;1.30;99.90;;;;;;5016568;28;20026;-70
2023/03/03 06:04:39;;;;;;;41.30;17.55;;;1.30;99.90;;;;;;5023187;28;20109;-74
2023/03/03 06:07:05;;;;;;;34.58;15.93;;;1.20;99.90;;;;;;5018572;28;20036;-72
2023/03/03 06:09:31;;;;;;;39.80;18.35;;;1.60;99.90;;;;;;5019984;28;20022;-70
2023/03/03 06:11:57;;;;;;;46.50;19.35;;;1.50;99.90;;;;;;5019371;28;20029;-74
2023/03/03 06:14:23;;;;;;;42.17;19.00;;;1.40;99.90;;;;;;5018647;28;20022;-72
2023/03/03 06:16:49;;;;;;;45.25;19.48;;;1.40;99.90;;;;;;5018467;28;20036;-72
2023/03/03 06:19:15;;;;;;;47.17;19.63;;;1.40;99.90;;;;;;5018752;28;20029;-73
2023/03/03 06:21:41;;;;;;;44.95;19.77;;;1.40;99.90;;;;;;5019139;28;20030;-73
2023/03/03 06:24:07;;;;;;;44.95;19.27;;;1.40;99.90;;;;;;5019219;28;20041;-73
2023/03/03 06:26:33;;;;;;;40.53;18.85;;;1.50;99.90;;;;;;5017098;28;20037;-73
2023/03/03 06:28:59;;;;;;;43.97;20.73;;;1.50;99.90;;;;;;5017595;28;20018;-73
2023/03/03 06:31:26;;;;;;;39.30;18.13;;;1.50;99.90;;;;;;5014570;28;20048;-73
2023/03/03 06:33:52;;;;;;;35.72;16.38;;;1.50;99.90;;;;;;5019997;28;20030;-70
2023/03/03 06:36:18;;;;;;;35.70;17.73;;;1.50;99.90;;;;;;5015092;28;20029;-71
2023/03/03 06:38:44;;;;;;;34.40;16.77;;;1.50;99.90;;;;;;5017498;28;20095;-72
2023/03/03 06:41:10;;;;;;;36.65;17.25;;;1.50;99.90;;;;;;5011953;28;20051;-73
2023/03/03 06:43:37;;;;;;;35.95;17.02;;;1.40;99.90;;;;;;5016230;28;20093;-72
2023/03/03 06:46:04;;;;;;;34.78;16.90;;;1.40;99.90;;;;;;5022793;28;20033;-72
2023/03/03 06:48:31;;;;;;;36.25;17.40;;;1.50;99.90;;;;;;5016894;28;20053;-74
2023/03/03 06:50:59;;;;;;;35.47;17.02;;;1.50;99.90;;;;;;5015659;28;20402;-74
2023/03/03 06:53:26;;;;;;;38.85;16.80;;;1.50;99.90;;;;;;5015698;28;20037;-70
2023/03/03 06:55:51;;;;;;;35.15;16.73;;;1.60;99.90;;;;;;5015869;28;20087;-74
2023/03/03 06:58:20;;;;;;;30.95;15.10;;;1.50;99.90;;;;;;5010701;28;20029;-73
2023/03/03 07:01:09;;;;;;;27.58;13.43;;;1.60;99.90;;;;;;4980295;28;20083;-72
2023/03/03 07:03:35;;;;;;;25.73;12.95;;;1.50;99.90;;;;;;5016288;28;20026;-73
2023/03/03 07:06:13;;;;;;;29.92;14.38;;;1.50;99.90;;;;;;5016500;28;20160;-72
2023/03/03 07:08:40;;;;;;;32.67;14.00;;;1.40;99.90;;;;;;4998341;28;20075;-74
2023/03/03 07:11:12;;;;;;;26.38;13.25;;;1.30;99.90;;;;;;5014206;28;20571;-73
2023/03/03 07:14:02;;;;;;;28.17;13.93;;;1.30;99.90;;;;;;5001997;28;20068;-72
2023/03/03 07:16:28;;;;;;;28.45;14.70;;;1.40;99.90;;;;;;5016940;28;20026;-72
2023/03/03 07:18:59;;;;;;;41.35;14.18;;;1.40;99.90;;;;;;5016946;28;20040;-73
2023/03/03 07:21:36;;;;;;;30.55;14.23;;;1.40;99.90;;;;;;5012162;28;20034;-73
2023/03/03 07:24:29;;;;;;;28.45;13.65;;;1.40;99.90;;;;;;5012963;28;20025;-73
2023/03/03 07:27:15;;;;;;;26.35;13.15;;;1.40;99.90;;;;;;5016529;28;20490;-73
2023/03/03 07:29:41;;;;;;;27.45;14.18;;;1.50;99.90;;;;;;5017479;28;20116;-70
2023/03/03 07:32:40;;;;;;;25.08;13.95;;;1.50;99.90;;;;;;5015229;28;20029;-70
2023/03/03 07:35:39;;;;;;;25.52;11.63;;;1.60;99.90;;;;;;5002014;28;20042;-73
2023/03/03 07:38:22;;;;;;;22.52;12.55;;;1.60;99.90;;;;;;5014310;28;20116;-74
2023/03/03 07:40:53;;;;;;;24.60;12.63;;;1.60;99.90;;;;;;5009464;28;20034;-71
2023/03/03 07:43:34;;;;;;;20.77;12.00;;;1.60;99.90;;;;;;5014350;28;20046;-72
2023/03/03 07:46:09;;;;;;;23.65;11.95;;;1.60;99.90;;;;;;5017134;28;20082;-73
2023/03/03 07:48:38;;;;;;;23.20;12.02;;;1.60;99.90;;;;;;5023637;28;20030;-71
2023/03/03 07:51:14;;;;;;;19.85;10.93;;;1.60;99.90;;;;;;5013950;28;20500;-74
2023/03/03 07:53:40;;;;;;;20.23;11.40;;;1.70;99.90;;;;;;5013869;28;20508;-73
2023/03/03 07:56:39;;;;;;;23.33;12.25;;;1.70;99.90;;;;;;5012565;28;20113;-74
2023/03/03 07:59:25;;;;;;;20.88;10.88;;;1.70;99.90;;;;;;4976612;28;20053;-73
2023/03/03 08:01:57;;;;;;;21.83;11.80;;;1.90;99.90;;;;;;5014520;28;20034;-71
2023/03/03 08:04:42;;;;;;;19.10;10.65;;;1.70;99.90;;;;;;5016451;28;20450;-72
2023/03/03 08:07:15;;;;;;;21.23;11.20;;;1.70;99.90;;;;;;5012567;28;20021;-72
2023/03/03 08:10:10;;;;;;;21.52;11.82;;;1.80;99.90;;;;;;5015331;28;20076;-70
2023/03/03 08:12:43;;;;;;;22.73;9.68;;;1.70;99.90;;;;;;5016576;28;20037;-71
2023/03/03 08:15:23;;;;;;;28.35;13.02;;;2.30;99.90;;;;;;5013267;28;20484;-71
2023/03/03 08:17:51;;;;;;;21.23;11.50;;;2.20;99.90;;;;;;5017835;28;20029;-74
2023/03/03 08:20:40;;;;;;;22.27;11.82;;;2.10;99.90;;;;;;5014549;28;20034;-71
2023/03/03 08:23:05;;;;;;;18.55;10.65;;;2.00;99.90;;;;;;5015650;28;20144;-72
2023/03/03 08:25:31;;;;;;;20.05;10.65;;;2.00;99.90;;;;;;5013543;28;20268;-73
2023/03/03 08:27:57;;;;;;;20.48;10.30;;;2.00;99.90;;;;;;5007542;28;20054;-71
2023/03/03 08:30:23;;;;;;;19.83;10.18;;;2.00;99.90;;;;;;5016992;28;20286;-73
2023/03/03 08:32:48;;;;;;;17.40;10.00;;;1.90;99.90;;;;;;5016468;28;20042;-73
2023/03/03 08:35:17;;;;;;;19.95;10.93;;;2.00;99.90;;;;;;5016525;28;20033;-74
2023/03/03 08:37:43;;;;;;;21.67;11.05;;;2.00;99.90;;;;;;5016580;28;20033;-71
2023/03/03 08:40:09;;;;;;;16.30;9.38;;;2.10;99.90;;;;;;5011388;28;20107;-73
2023/03/03 08:42:35;;;;;;;21.13;11.23;;;2.10;99.90;;;;;;4994878;28;20044;-74
2023/03/03 08:45:01;;;;;;;20.02;11.77;;;2.10;99.90;;;;;;5016552;28;20029;-74
2023/03/03 08:47:26;;;;;;;27.50;13.27;;;2.10;99.90;;;;;;5015482;28;20421;-74
2023/03/03 08:49:53;;;;;;;23.13;12.48;;;2.20;99.90;;;;;;5019505;28;20033;-71
2023/03/03 08:52:19;;;;;;;28.20;13.80;;;2.20;99.90;;;;;;5016904;28;20029;-73
2023/03/03 08:54:44;;;;;;;31.52;13.68;;;2.20;99.90;;;;;;5016562;28;20037;-74
2023/03/03 08:57:10;;;;;;;34.33;15.25;;;2.20;99.90;;;;;;5016712;28;20065;-73
2023/03/03 08:59:37;;;;;;;32.20;14.98;;;2.20;99.90;;;;;;5013317;28;20068;-74
2023/03/03 09:02:06;;;;;;;41.30;16.42;;;2.20;99.90;;;;;;5013756;28;20033;-74
2023/03/03 09:04:33;;;;;;;32.63;16.15;;;2.20;99.90;;;;;;5017520;28;20073;-73
2023/03/03 09:06:59;;;;;;;26.98;13.75;;;2.20;99.90;;;;;;5017089;28;20104;-71
2023/03/03 09:09:24;;;;;;;30.48;13.68;;;2.20;99.90;;;;;;5015554;28;20041;-71
2023/03/03 09:11:56;;;;;;;31.08;14.57;;;2.20;99.90;;;;;;5015834;28;20075;-72
2023/03/03 09:14:27;;;;;;;37.50;17.30;;;2.20;99.90;;;;;;5016595;28;20053;-75
2023/03/03 09:16:56;;;;;;;39.70;16.98;;;2.20;99.90;;;;;;4996795;28;20048;-73
2023/03/03 09:19:28;;;;;;;41.72;19.90;;;2.30;99.90;;;;;;5019647;28;20025;-73
2023/03/03 09:21:57;;;;;;;51.90;20.50;;;2.30;99.90;;;;;;5017231;28;20222;-73
2023/03/03 09:24:34;;;;;;;54.78;22.60;;;2.30;99.90;;;;;;5013366;28;20114;-70
2023/03/03 09:26:59;;;;;;;54.92;21.95;;;2.30;99.90;;;;;;5016331;28;20444;-73
2023/03/03 09:29:27;;;;;;;54.13;22.48;;;2.40;99.90;;;;;;5024345;28;20022;-73
2023/03/03 09:32:07;;;;;;;59.85;23.70;;;2.40;99.90;;;;;;5017659;28;20021;-74
2023/03/03 09:34:38;;;;;;;43.22;20.33;;;2.40;99.90;;;;;;5022615;28;20382;-73
2023/03/03 09:37:25;;;;;;;;;;;2.40;99.90;;;;;;5012281;28;20363;-74
2023/03/03 09:39:53;;;;;;;42.67;18.00;;;2.30;99.90;;;;;;5014452;28;20357;-71
2023/03/03 09:42:57;;;;;;;39.63;18.85;;;2.30;99.90;;;;;;5015279;28;20549;-73
2023/03/03 09:45:37;;;;;;;39.80;17.83;;;2.40;99.90;;;;;;5014952;28;20039;-73
2023/03/03 09:48:19;;;;;;;46.60;19.52;;;2.40;99.90;;;;;;5011672;28;20176;-74
2023/03/03 09:51:07;;;;;;;43.75;18.35;;;2.40;99.90;;;;;;4998207;28;20037;-72
2023/03/03 09:53:52;;;;;;;44.00;17.73;;;2.40;99.90;;;;;;5011744;28;20037;-71
2023/03/03 09:56:27;;;;;;;41.17;16.50;;;2.50;99.90;;;;;;5015710;28;20036;-72
2023/03/03 09:59:05;;;;;;;30.88;14.27;;;2.60;99.90;;;;;;5014122;28;20037;-70
2023/03/03 10:01:56;;;;;;;27.75;13.63;;;2.60;99.90;;;;;;5019463;28;20034;-70
2023/03/03 10:05:04;;;;;;;31.77;15.10;;;2.60;99.90;;;;;;5027972;28;20050;-71
2023/03/03 10:07:42;;;;;;;36.88;15.73;;;2.60;99.90;;;;;;5021195;28;20500;-71
2023/03/03 10:10:38;;;;;;;30.13;14.27;;;2.70;99.90;;;;;;5018808;28;20026;-73
2023/03/03 10:13:26;;;;;;;38.30;15.88;;;2.80;99.90;;;;;;5013356;28;20120;-72
2023/03/03 10:16:31;;;;;;;34.85;16.05;;;3.00;99.90;;;;;;5010876;28;20152;-73
2023/03/03 10:19:29;;;;;;;34.72;17.83;;;3.20;99.90;;;;;;5015876;28;20273;-70
2023/03/03 10:22:29;;;;;;;39.47;16.42;;;3.20;99.90;;;;;;5017744;28;20048;-72
2023/03/03 10:25:07;;;;;;;29.80;14.23;;;3.20;99.90;;;;;;5001551;28;20129;-70
2023/03/03 10:28:20;;;;;;;33.35;13.93;;;3.30;99.90;;;;;;5015590;28;20115;-71
2023/03/03 10:31:08;;;;;;;28.95;14.75;;;3.30;99.90;;;;;;5012685;28;20037;-71
2023/03/03 10:33:59;;;;;;;26.42;11.88;;;3.30;99.90;;;;;;5016973;28;20029;-71
2023/03/03 10:36:45;;;;;;;27.20;12.90;;;3.30;99.90;;;;;;5022802;28;20032;-70
2023/03/03 10:39:36;;;;;;;22.83;12.20;;;3.40;99.90;;;;;;5016509;28;20025;-70
2023/03/03 10:42:25;;;;;;;24.20;10.95;;;3.40;99.90;;;;;;4998814;28;20029;-73
2023/03/03 10:45:06;;;;;;;26.08;11.80;;;3.50;99.90;;;;;;5017512;28;20606;-71
2023/03/03 10:47:59;;;;;;;22.80;11.43;;;3.50;99.90;;;;;;5018928;28;20373;-73
2023/03/03 10:50:40;;;;;;;27.45;12.85;;;3.60;99.90;;;;;;5020639;28;20029;-71
2023/03/03 10:53:20;;;;;;;28.77;13.43;;;3.80;99.90;;;;;;5017043;28;20018;-74
2023/03/03 10:55:49;;;;;;;30.77;14.50;;;3.80;99.90;;;;;;5021858;28;20144;-74
2023/03/03 10:58:28;;;;;;;29.65;13.68;;;3.60;99.90;;;;;;5017380;28;20147;-73
2023/03/03 11:01:25;;;;;;;29.40;14.88;;;3.70;99.90;;;;;;5016695;28;20034;-73
2023/03/03 11:04:09;;;;;;;33.42;13.57;;;3.70;99.90;;;;;;5018566;28;20497;-74
2023/03/03 11:06:38;;;;;;;27.00;13.88;;;3.80;99.90;;;;;;5017917;28;20096;-74
2023/03/03 11:09:27;;;;;;;30.02;14.38;;;3.80;99.90;;;;;;5021147;28;20049;-75
2023/03/03 11:12:19;;;;;;;29.20;14.07;;;3.70;99.90;;;;;;5015664;28;20037;-77
2023/03/03 11:14:48;;;;;;;30.15;15.43;;;3.70;99.90;;;;;;5026815;28;20084;-74
2023/03/03 11:17:34;;;;;;;32.08;16.02;;;3.70;99.90;;;;;;5020772;28;20080;-73
2023/03/03 11:20:36;;;;;;;29.50;16.42;;;3.70;99.90;;;;;;5020534;28;20328;-72
2023/03/03 11:23:42;;;;;;;30.15;16.13;;;3.70;99.90;;;;;;5021257;28;20052;-74
2023/03/03 11:26:22;;;;;;;27.75;14.82;;;3.70;99.90;;;;;;5000222;28;20375;-74
2023/03/03 11:29:06;;;;;;;26.50;14.05;;;3.80;99.90;;;;;;5010900;28;20092;-73
2023/03/03 11:31:52;;;;;;;26.23;12.93;;;3.90;99.90;;;;;;4999950;28;20429;-74
2023/03/03 11:34:58;;;;;;;22.42;12.25;;;4.00;99.90;;;;;;5018771;28;20076;-74
2023/03/03 11:37:48;;;;;;;21.77;10.98;;;4.00;99.90;;;;;;4985482;28;20391;-75
2023/03/03 11:40:19;;;;;;;21.05;10.20;;;4.10;99.90;;;;;;4999380;28;20628;-78
2023/03/03 11:43:40;;;;;;;20.38;10.13;;;4.20;99.90;;;;;;5013088;28;20761;-76
2023/03/03 11:46:21;;;;;;;22.73;10.57;;;4.30;99.90;;;;;;4988052;28;20377;-76
2023/03/03 11:49:02;;;;;;;20.98;10.40;;;4.30;99.90;;;;;;5014791;28;20310;-75
2023/03/03 11:51:44;;;;;;;22.25;10.82;;;4.30;99.90;;;;;;5015794;28;20029;-75
2023/03/03 11:54:50;;;;;;;27.38;10.90;;;4.30;99.90;;;;;;5017340;28;20032;-75
2023/03/03 11:57:50;;;;;;;21.05;11.05;;;4.30;99.90;;;;;;4988759;28;20535;-75
2023/03/03 12:00:37;;;;;;;21.92;10.25;;;4.50;99.90;;;;;;5010676;28;20041;-71
2023/03/03 12:03:24;;;;;;;28.13;11.85;;;4.60;99.90;;;;;;5016492;28;20281;-72
2023/03/03 12:06:08;;;;;;;25.17;11.90;;;4.70;99.90;;;;;;5002646;28;20029;-72
2023/03/03 12:08:53;;;;;;;25.15;11.50;;;4.80;99.90;;;;;;5010957;28;20034;-72
2023/03/03 12:11:27;;;;;;;25.60;11.88;;;4.90;99.90;;;;;;5011367;28;20552;-73
2023/03/03 12:14:19;;;;;;;24.25;10.80;;;5.00;99.90;;;;;;5016525;28;20477;-73
2023/03/03 12:17:05;;;;;;;27.48;10.95;;;5.00;99.90;;;;;;5017116;28;20045;-75
2023/03/03 12:19:58;;;;;;;26.17;10.45;;;5.20;99.90;;;;;;5016461;28;20022;-75
2023/03/03 12:22:38;;;;;;;23.90;10.98;;;5.20;99.90;;;;;;5013306;28;20464;-72
2023/03/03 12:25:43;;;;;;;25.98;9.75;;;5.40;99.90;;;;;;5003651;28;20034;-72
2023/03/03 12:28:27;;;;;;;69.03;32.50;;;5.40;99.90;;;;;;5014275;28;20042;-75
2023/03/03 12:31:18;;;;;;;330.15;170.38;;;5.50;99.90;;;;;;5020043;28;20038;-71
2023/03/03 12:33:49;;;;;;;26.13;10.97;;;5.60;99.90;;;;;;5015024;28;20030;-75
2023/03/03 12:36:44;;;;;;;21.48;8.45;;;5.60;99.90;;;;;;5014527;28;20063;-72
2023/03/03 12:39:36;;;;;;;18.23;7.28;;;5.40;99.90;;;;;;4991357;28;20480;-73
2023/03/03 12:42:20;;;;;;;19.35;7.68;;;5.40;99.90;;;;;;5033490;28;20056;-72
2023/03/03 12:45:14;;;;;;;13.48;6.60;;;5.50;99.90;;;;;;5015350;28;20073;-73
2023/03/03 12:48:09;;;;;;;12.85;6.07;;;5.70;99.90;;;;;;5013203;28;20040;-75
2023/03/03 12:50:54;;;;;;;10.77;5.15;;;5.70;99.90;;;;;;5015379;28;20022;-74
2023/03/03 12:53:34;;;;;;;12.35;5.10;;;5.80;99.90;;;;;;5017588;28;20405;-73
2023/03/03 12:56:25;;;;;;;12.90;5.15;;;6.00;99.90;;;;;;5018535;28;20060;-76
2023/03/03 12:59:03;;;;;;;15.88;5.72;;;6.10;99.90;;;;;;5017848;28;20450;-76
2023/03/03 13:01:47;;;;;;;12.18;4.70;;;6.10;99.90;;;;;;5019596;28;20052;-76
2023/03/03 13:04:48;;;;;;;8.32;4.05;;;6.20;99.90;;;;;;5018832;28;20136;-76
2023/03/03 13:07:21;;;;;;;12.80;4.00;;;6.30;99.90;;;;;;5014393;28;20033;-73
2023/03/03 13:10:17;;;;;;;10.68;3.67;;;6.40;99.90;;;;;;5017297;28;20335;-73
2023/03/03 13:13:08;;;;;;;9.73;2.63;;;6.50;99.90;;;;;;5014922;28;20028;-77